sensor_id;sensor_type;location;lat;lon;timestamp;pressure;altitude;pressure_sealevel;temperature;humidity
59053;BME280;44843;44.728;10.396;2023-07-30T00:01:12;100098.41;;;27.01;nan
59053;BME280;44843;44.728;10.396;2023-07-30T00:03:37;100090.59;;;27.06;nan
59053;BME280;44843;44.728;10.396;2023-07-30T00:06:03;100086.28;;;27.05;nan
59053;BME280;44843;44.728;10.396;2023-07-30T00:08:28;100075.78;;;27.03;nan
59053;BME280;44843;44.728;10.396;2023-07-30T00:10:56;100083.00;;;27.09;nan
59053;BME280;44843;44.728;10.396;2023-07-30T00:13:22;100093.06;;;26.94;nan
59053;BME280;44843;44.728;10.396;2023-07-30T00:15:47;100117.31;;;26.92;nan
59053;BME280;44843;44.728;10.396;2023-07-30T00:18:13;100129.47;;;27.02;nan
59053;BME280;44843;44.728;10.396;2023-07-30T00:20:39;100126.78;;;26.88;nan
59053;BME280;44843;44.728;10.396;2023-07-30T00:23:04;100152.78;;;26.53;nan
59053;BME280;44843;44.728;10.396;2023-07-30T00:25:29;100168.72;;;25.98;nan
59053;BME280;44843;44.728;10.396;2023-07-30T00:27:55;100181.72;;;25.86;nan
59053;BME280;44843;44.728;10.396;2023-07-30T00:30:20;100187.91;;;25.37;nan
59053;BME280;44843;44.728;10.396;2023-07-30T00:32:45;100173.97;;;25.20;nan
59053;BME280;44843;44.728;10.396;2023-07-30T00:35:11;100176.34;;;25.30;nan
59053;BME280;44843;44.728;10.396;2023-07-30T00:37:36;100183.16;;;25.33;nan
59053;BME280;44843;44.728;10.396;2023-07-30T00:40:02;100195.59;;;25.25;nan
59053;BME280;44843;44.728;10.396;2023-07-30T00:42:28;100188.44;;;25.11;nan
59053;BME280;44843;44.728;10.396;2023-07-30T00:44:54;100186.50;;;25.20;nan
59053;BME280;44843;44.728;10.396;2023-07-30T00:47:19;100184.41;;;25.37;nan
59053;BME280;44843;44.728;10.396;2023-07-30T00:49:44;100205.69;;;25.52;nan
59053;BME280;44843;44.728;10.396;2023-07-30T00:52:10;100198.75;;;25.57;nan
59053;BME280;44843;44.728;10.396;2023-07-30T00:54:36;100204.56;;;25.39;nan
59053;BME280;44843;44.728;10.396;2023-07-30T00:57:01;100212.00;;;25.44;nan
59053;BME280;44843;44.728;10.396;2023-07-30T00:59:27;100221.09;;;25.13;nan
59053;BME280;44843;44.728;10.396;2023-07-30T01:01:53;100201.66;;;24.83;nan
59053;BME280;44843;44.728;10.396;2023-07-30T01:04:18;100205.63;;;24.57;nan
59053;BME280;44843;44.728;10.396;2023-07-30T01:06:44;100190.19;;;24.53;nan
59053;BME280;44843;44.728;10.396;2023-07-30T01:09:10;100183.19;;;24.37;nan
59053;BME280;44843;44.728;10.396;2023-07-30T01:11:37;100195.16;;;24.41;nan
59053;BME280;44843;44.728;10.396;2023-07-30T01:14:05;100196.69;;;24.35;nan
59053;BME280;44843;44.728;10.396;2023-07-30T01:16:31;100187.88;;;24.20;nan
59053;BME280;44843;44.728;10.396;2023-07-30T01:18:56;100200.19;;;24.21;nan
59053;BME280;44843;44.728;10.396;2023-07-30T01:21:24;100206.63;;;24.41;nan
59053;BME280;44843;44.728;10.396;2023-07-30T01:23:49;100206.28;;;24.59;nan
59053;BME280;44843;44.728;10.396;2023-07-30T01:26:22;100203.34;;;24.54;nan
59053;BME280;44843;44.728;10.396;2023-07-30T01:28:54;100199.94;;;24.60;nan
59053;BME280;44843;44.728;10.396;2023-07-30T01:31:23;100182.94;;;24.32;nan
59053;BME280;44843;44.728;10.396;2023-07-30T01:33:52;100192.78;;;24.61;nan
59053;BME280;44843;44.728;10.396;2023-07-30T01:36:19;100184.53;;;24.92;nan
59053;BME280;44843;44.728;10.396;2023-07-30T01:38:47;100190.72;;;24.93;nan
59053;BME280;44843;44.728;10.396;2023-07-30T01:41:13;100195.13;;;24.85;nan
59053;BME280;44843;44.728;10.396;2023-07-30T01:43:38;100186.19;;;24.93;nan
59053;BME280;44843;44.728;10.396;2023-07-30T01:46:04;100166.38;;;25.02;nan
59053;BME280;44843;44.728;10.396;2023-07-30T01:48:29;100163.03;;;24.79;nan
59053;BME280;44843;44.728;10.396;2023-07-30T01:50:54;100169.97;;;24.73;nan
59053;BME280;44843;44.728;10.396;2023-07-30T01:53:20;100175.72;;;24.77;nan
59053;BME280;44843;44.728;10.396;2023-07-30T01:55:45;100165.06;;;24.77;nan
59053;BME280;44843;44.728;10.396;2023-07-30T01:58:12;100164.50;;;24.81;nan
59053;BME280;44843;44.728;10.396;2023-07-30T02:00:38;100169.38;;;24.93;nan
59053;BME280;44843;44.728;10.396;2023-07-30T02:03:04;100172.84;;;24.93;nan
59053;BME280;44843;44.728;10.396;2023-07-30T02:05:30;100164.63;;;24.73;nan
59053;BME280;44843;44.728;10.396;2023-07-30T02:07:55;100164.72;;;24.80;nan
59053;BME280;44843;44.728;10.396;2023-07-30T02:10:21;100164.84;;;24.57;nan
59053;BME280;44843;44.728;10.396;2023-07-30T02:12:46;100160.94;;;24.44;nan
59053;BME280;44843;44.728;10.396;2023-07-30T02:15:11;100160.25;;;24.51;nan
59053;BME280;44843;44.728;10.396;2023-07-30T02:17:37;100168.41;;;24.34;nan
59053;BME280;44843;44.728;10.396;2023-07-30T02:20:02;100173.00;;;24.55;nan
59053;BME280;44843;44.728;10.396;2023-07-30T02:22:28;100174.84;;;24.25;nan
59053;BME280;44843;44.728;10.396;2023-07-30T02:24:53;100168.31;;;24.27;nan
59053;BME280;44843;44.728;10.396;2023-07-30T02:27:18;100157.38;;;24.37;nan
59053;BME280;44843;44.728;10.396;2023-07-30T02:29:44;100162.34;;;24.25;nan
59053;BME280;44843;44.728;10.396;2023-07-30T02:32:09;100158.94;;;24.02;nan
59053;BME280;44843;44.728;10.396;2023-07-30T02:34:34;100141.50;;;23.99;nan
59053;BME280;44843;44.728;10.396;2023-07-30T02:37:00;100149.31;;;24.01;nan
59053;BME280;44843;44.728;10.396;2023-07-30T02:39:25;100147.84;;;24.28;nan
59053;BME280;44843;44.728;10.396;2023-07-30T02:41:50;100142.81;;;24.18;nan
59053;BME280;44843;44.728;10.396;2023-07-30T02:44:16;100160.78;;;24.01;nan
59053;BME280;44843;44.728;10.396;2023-07-30T02:46:41;100153.53;;;24.10;nan
59053;BME280;44843;44.728;10.396;2023-07-30T02:49:07;100154.81;;;23.99;nan
59053;BME280;44843;44.728;10.396;2023-07-30T02:51:33;100139.56;;;24.08;nan
59053;BME280;44843;44.728;10.396;2023-07-30T02:53:58;100142.16;;;24.01;nan
59053;BME280;44843;44.728;10.396;2023-07-30T02:56:28;100142.31;;;24.00;nan
59053;BME280;44843;44.728;10.396;2023-07-30T02:58:54;100143.06;;;24.09;nan
59053;BME280;44843;44.728;10.396;2023-07-30T03:01:19;100138.38;;;23.96;nan
59053;BME280;44843;44.728;10.396;2023-07-30T03:03:44;100132.38;;;23.94;nan
59053;BME280;44843;44.728;10.396;2023-07-30T03:06:10;100139.94;;;23.90;nan
59053;BME280;44843;44.728;10.396;2023-07-30T03:08:35;100138.56;;;23.94;nan
59053;BME280;44843;44.728;10.396;2023-07-30T03:11:01;100141.03;;;23.96;nan
59053;BME280;44843;44.728;10.396;2023-07-30T03:13:26;100150.13;;;24.01;nan
59053;BME280;44843;44.728;10.396;2023-07-30T03:15:52;100148.22;;;24.25;nan
59053;BME280;44843;44.728;10.396;2023-07-30T03:18:17;100149.22;;;24.24;nan
59053;BME280;44843;44.728;10.396;2023-07-30T03:20:42;100141.41;;;24.22;nan
59053;BME280;44843;44.728;10.396;2023-07-30T03:23:08;100155.38;;;24.10;nan
59053;BME280;44843;44.728;10.396;2023-07-30T03:25:33;100146.91;;;23.91;nan
59053;BME280;44843;44.728;10.396;2023-07-30T03:27:58;100143.66;;;23.81;nan
59053;BME280;44843;44.728;10.396;2023-07-30T03:30:24;100141.91;;;23.73;nan
59053;BME280;44843;44.728;10.396;2023-07-30T03:32:49;100143.41;;;23.76;nan
59053;BME280;44843;44.728;10.396;2023-07-30T03:35:15;100147.72;;;23.77;nan
59053;BME280;44843;44.728;10.396;2023-07-30T03:37:40;100149.06;;;23.73;nan
59053;BME280;44843;44.728;10.396;2023-07-30T03:40:06;100151.72;;;23.73;nan
59053;BME280;44843;44.728;10.396;2023-07-30T03:42:31;100151.72;;;23.73;nan
59053;BME280;44843;44.728;10.396;2023-07-30T03:44:57;100148.81;;;23.82;nan
59053;BME280;44843;44.728;10.396;2023-07-30T03:47:22;100137.81;;;24.00;nan
59053;BME280;44843;44.728;10.396;2023-07-30T03:49:48;100138.47;;;24.02;nan
59053;BME280;44843;44.728;10.396;2023-07-30T03:52:13;100131.22;;;24.11;nan
59053;BME280;44843;44.728;10.396;2023-07-30T03:54:38;100122.41;;;24.11;nan
59053;BME280;44843;44.728;10.396;2023-07-30T03:57:04;100131.19;;;23.96;nan
59053;BME280;44843;44.728;10.396;2023-07-30T03:59:29;100127.28;;;23.92;nan
59053;BME280;44843;44.728;10.396;2023-07-30T04:01:54;100126.81;;;23.89;nan
59053;BME280;44843;44.728;10.396;2023-07-30T04:04:20;100127.94;;;23.71;nan
59053;BME280;44843;44.728;10.396;2023-07-30T04:06:45;100114.34;;;23.66;nan
59053;BME280;44843;44.728;10.396;2023-07-30T04:09:11;100114.69;;;23.63;nan
59053;BME280;44843;44.728;10.396;2023-07-30T04:11:36;100107.03;;;23.83;nan
59053;BME280;44843;44.728;10.396;2023-07-30T04:14:01;100109.72;;;23.83;nan
59053;BME280;44843;44.728;10.396;2023-07-30T04:16:30;100111.22;;;23.62;nan
59053;BME280;44843;44.728;10.396;2023-07-30T04:18:55;100110.28;;;23.55;nan
59053;BME280;44843;44.728;10.396;2023-07-30T04:21:20;100112.59;;;23.58;nan
59053;BME280;44843;44.728;10.396;2023-07-30T04:23:46;100107.25;;;23.81;nan
59053;BME280;44843;44.728;10.396;2023-07-30T04:26:11;100105.75;;;23.79;nan
59053;BME280;44843;44.728;10.396;2023-07-30T04:28:37;100105.50;;;23.89;nan
59053;BME280;44843;44.728;10.396;2023-07-30T04:31:02;100106.06;;;23.84;nan
59053;BME280;44843;44.728;10.396;2023-07-30T04:33:28;100104.69;;;23.88;nan
59053;BME280;44843;44.728;10.396;2023-07-30T04:35:53;100116.41;;;23.79;nan
59053;BME280;44843;44.728;10.396;2023-07-30T04:38:19;100113.00;;;23.85;nan
59053;BME280;44843;44.728;10.396;2023-07-30T04:40:44;100110.38;;;24.00;nan
59053;BME280;44843;44.728;10.396;2023-07-30T04:43:10;100107.16;;;24.04;nan
59053;BME280;44843;44.728;10.396;2023-07-30T04:45:35;100098.13;;;24.20;nan
59053;BME280;44843;44.728;10.396;2023-07-30T04:48:00;100112.09;;;24.37;nan
59053;BME280;44843;44.728;10.396;2023-07-30T04:50:26;100105.19;;;24.58;nan
59053;BME280;44843;44.728;10.396;2023-07-30T04:52:51;100113.41;;;24.78;nan
59053;BME280;44843;44.728;10.396;2023-07-30T04:55:17;100109.25;;;25.33;nan
59053;BME280;44843;44.728;10.396;2023-07-30T04:57:42;100110.13;;;25.68;nan
59053;BME280;44843;44.728;10.396;2023-07-30T05:00:07;100105.19;;;25.65;nan
59053;BME280;44843;44.728;10.396;2023-07-30T05:02:33;100103.88;;;26.11;nan
59053;BME280;44843;44.728;10.396;2023-07-30T05:04:58;100117.56;;;26.01;nan
59053;BME280;44843;44.728;10.396;2023-07-30T05:07:24;100110.31;;;25.95;nan
59053;BME280;44843;44.728;10.396;2023-07-30T05:09:49;100118.72;;;26.27;nan
59053;BME280;44843;44.728;10.396;2023-07-30T05:12:14;100110.16;;;27.13;nan
59053;BME280;44843;44.728;10.396;2023-07-30T05:14:40;100105.63;;;27.93;nan
59053;BME280;44843;44.728;10.396;2023-07-30T05:17:05;100107.59;;;28.18;nan
59053;BME280;44843;44.728;10.396;2023-07-30T05:19:31;100106.69;;;28.44;nan
59053;BME280;44843;44.728;10.396;2023-07-30T05:21:57;100114.72;;;27.92;nan
59053;BME280;44843;44.728;10.396;2023-07-30T05:24:24;100117.25;;;28.32;nan
59053;BME280;44843;44.728;10.396;2023-07-30T05:26:50;100114.72;;;29.71;nan
59053;BME280;44843;44.728;10.396;2023-07-30T05:29:15;100122.72;;;29.53;nan
59053;BME280;44843;44.728;10.396;2023-07-30T05:31:40;100129.41;;;28.87;nan
59053;BME280;44843;44.728;10.396;2023-07-30T05:34:06;100131.56;;;29.35;nan
59053;BME280;44843;44.728;10.396;2023-07-30T05:36:31;100141.22;;;31.09;nan
59053;BME280;44843;44.728;10.396;2023-07-30T05:38:56;100138.38;;;31.46;nan
59053;BME280;44843;44.728;10.396;2023-07-30T05:41:22;100142.72;;;28.62;nan
59053;BME280;44843;44.728;10.396;2023-07-30T05:43:47;100154.72;;;28.98;nan
59053;BME280;44843;44.728;10.396;2023-07-30T05:46:14;100160.34;;;30.40;nan
59053;BME280;44843;44.728;10.396;2023-07-30T05:48:39;100154.81;;;28.26;nan
59053;BME280;44843;44.728;10.396;2023-07-30T05:51:05;100159.78;;;28.15;nan
59053;BME280;44843;44.728;10.396;2023-07-30T05:53:30;100160.47;;;30.08;nan
59053;BME280;44843;44.728;10.396;2023-07-30T05:55:56;100168.75;;;32.64;nan
59053;BME280;44843;44.728;10.396;2023-07-30T05:58:21;100170.22;;;33.29;nan
59053;BME280;44843;44.728;10.396;2023-07-30T06:00:46;100180.13;;;32.78;nan
59053;BME280;44843;44.728;10.396;2023-07-30T06:03:12;100186.78;;;33.50;nan
59053;BME280;44843;44.728;10.396;2023-07-30T06:05:41;100192.00;;;33.56;nan
59053;BME280;44843;44.728;10.396;2023-07-30T06:08:07;100183.84;;;30.26;nan
59053;BME280;44843;44.728;10.396;2023-07-30T06:10:38;100189.56;;;31.46;nan
59053;BME280;44843;44.728;10.396;2023-07-30T06:13:05;100183.59;;;28.57;nan
59053;BME280;44843;44.728;10.396;2023-07-30T06:15:31;100189.66;;;26.64;nan
59053;BME280;44843;44.728;10.396;2023-07-30T06:17:57;100189.69;;;26.36;nan
59053;BME280;44843;44.728;10.396;2023-07-30T06:20:22;100196.28;;;26.75;nan
59053;BME280;44843;44.728;10.396;2023-07-30T06:22:47;100190.56;;;26.50;nan
59053;BME280;44843;44.728;10.396;2023-07-30T06:25:13;100190.34;;;26.10;nan
59053;BME280;44843;44.728;10.396;2023-07-30T06:27:38;100186.94;;;26.58;nan
59053;BME280;44843;44.728;10.396;2023-07-30T06:30:04;100188.25;;;26.68;nan
59053;BME280;44843;44.728;10.396;2023-07-30T06:32:30;100192.53;;;26.63;nan
59053;BME280;44843;44.728;10.396;2023-07-30T06:34:55;100199.44;;;25.87;nan
59053;BME280;44843;44.728;10.396;2023-07-30T06:37:20;100199.66;;;26.97;nan
59053;BME280;44843;44.728;10.396;2023-07-30T06:39:46;100203.47;;;27.29;nan
59053;BME280;44843;44.728;10.396;2023-07-30T06:42:11;100199.38;;;27.40;nan
59053;BME280;44843;44.728;10.396;2023-07-30T06:44:36;100198.78;;;27.85;nan
59053;BME280;44843;44.728;10.396;2023-07-30T06:47:02;100195.25;;;28.83;nan
59053;BME280;44843;44.728;10.396;2023-07-30T06:49:27;100206.59;;;28.06;nan
59053;BME280;44843;44.728;10.396;2023-07-30T06:51:53;100196.19;;;29.65;nan
59053;BME280;44843;44.728;10.396;2023-07-30T06:54:20;100197.13;;;30.03;nan
59053;BME280;44843;44.728;10.396;2023-07-30T06:56:45;100214.13;;;34.87;nan
59053;BME280;44843;44.728;10.396;2023-07-30T06:59:10;100210.94;;;37.08;nan
59053;BME280;44843;44.728;10.396;2023-07-30T07:01:36;100216.13;;;39.22;nan
59053;BME280;44843;44.728;10.396;2023-07-30T07:04:01;100210.88;;;40.18;nan
59053;BME280;44843;44.728;10.396;2023-07-30T07:06:26;61389.06;;;-146.16;100.00
59053;BME280;44843;44.728;10.396;2023-07-30T07:08:52;61389.06;;;-146.16;100.00
59053;BME280;44843;44.728;10.396;2023-07-30T07:11:17;61389.06;;;-146.16;100.00
59053;BME280;44843;44.728;10.396;2023-07-30T07:13:42;61389.06;;;-146.16;100.00
59053;BME280;44843;44.728;10.396;2023-07-30T07:16:08;61389.06;;;-146.16;100.00
59053;BME280;44843;44.728;10.396;2023-07-30T07:18:34;61389.06;;;-146.16;100.00
59053;BME280;44843;44.728;10.396;2023-07-30T07:20:59;61389.06;;;-146.16;100.00
59053;BME280;44843;44.728;10.396;2023-07-30T07:23:24;61389.06;;;-146.16;100.00
59053;BME280;44843;44.728;10.396;2023-07-30T07:25:51;61389.06;;;-146.16;100.00
59053;BME280;44843;44.728;10.396;2023-07-30T07:28:17;61389.06;;;-146.16;100.00
59053;BME280;44843;44.728;10.396;2023-07-30T07:30:43;61389.06;;;-146.16;100.00
59053;BME280;44843;44.728;10.396;2023-07-30T07:33:09;61389.06;;;-146.16;100.00
59053;BME280;44843;44.728;10.396;2023-07-30T07:35:40;61389.06;;;-146.16;100.00
59053;BME280;44843;44.728;10.396;2023-07-30T07:38:06;61389.06;;;-146.16;100.00
59053;BME280;44843;44.728;10.396;2023-07-30T07:40:36;61389.06;;;-146.16;100.00
59053;BME280;44843;44.728;10.396;2023-07-30T07:43:04;61389.06;;;-146.16;100.00
59053;BME280;44843;44.728;10.396;2023-07-30T07:45:30;100193.50;;;29.02;nan
59053;BME280;44843;44.728;10.396;2023-07-30T07:47:55;100207.69;;;29.79;nan
59053;BME280;44843;44.728;10.396;2023-07-30T07:50:20;100203.19;;;29.73;nan
59053;BME280;44843;44.728;10.396;2023-07-30T07:52:46;100200.69;;;29.71;nan
59053;BME280;44843;44.728;10.396;2023-07-30T07:55:11;100205.59;;;29.49;nan
59053;BME280;44843;44.728;10.396;2023-07-30T07:57:36;100204.88;;;30.11;nan
59053;BME280;44843;44.728;10.396;2023-07-30T08:00:02;100199.22;;;29.75;nan
59053;BME280;44843;44.728;10.396;2023-07-30T08:02:30;100204.88;;;29.35;nan
59053;BME280;44843;44.728;10.396;2023-07-30T08:04:55;100206.09;;;29.65;nan
59053;BME280;44843;44.728;10.396;2023-07-30T08:07:21;100205.13;;;29.27;nan
59053;BME280;44843;44.728;10.396;2023-07-30T08:09:46;100206.13;;;28.23;nan
59053;BME280;44843;44.728;10.396;2023-07-30T08:12:12;100215.16;;;28.55;nan
59053;BME280;44843;44.728;10.396;2023-07-30T08:14:37;100214.38;;;29.00;nan
59053;BME280;44843;44.728;10.396;2023-07-30T08:17:03;100210.88;;;29.37;nan
59053;BME280;44843;44.728;10.396;2023-07-30T08:19:30;100211.63;;;28.61;nan
59053;BME280;44843;44.728;10.396;2023-07-30T08:21:55;100214.69;;;29.16;nan
59053;BME280;44843;44.728;10.396;2023-07-30T08:24:22;61389.06;;;-146.16;100.00
59053;BME280;44843;44.728;10.396;2023-07-30T08:26:47;61389.06;;;-146.16;100.00
59053;BME280;44843;44.728;10.396;2023-07-30T08:29:13;61389.06;;;-146.16;100.00
59053;BME280;44843;44.728;10.396;2023-07-30T08:31:39;61389.06;;;-146.16;100.00
59053;BME280;44843;44.728;10.396;2023-07-30T08:34:04;61389.06;;;-146.16;100.00
59053;BME280;44843;44.728;10.396;2023-07-30T08:36:29;61389.06;;;-146.16;100.00
59053;BME280;44843;44.728;10.396;2023-07-30T08:38:55;61389.06;;;-146.16;100.00
59053;BME280;44843;44.728;10.396;2023-07-30T08:41:20;61389.06;;;-146.16;100.00
59053;BME280;44843;44.728;10.396;2023-07-30T08:43:46;61389.06;;;-146.16;100.00
59053;BME280;44843;44.728;10.396;2023-07-30T08:46:15;61389.06;;;-146.16;100.00
59053;BME280;44843;44.728;10.396;2023-07-30T08:48:40;61389.06;;;-146.16;100.00
59053;BME280;44843;44.728;10.396;2023-07-30T08:51:05;61389.06;;;-146.16;100.00
59053;BME280;44843;44.728;10.396;2023-07-30T08:53:31;61389.06;;;-146.16;100.00
59053;BME280;44843;44.728;10.396;2023-07-30T08:55:58;61389.06;;;-146.16;100.00
59053;BME280;44843;44.728;10.396;2023-07-30T08:58:25;61389.06;;;-146.16;100.00
59053;BME280;44843;44.728;10.396;2023-07-30T09:00:55;61389.06;;;-146.16;100.00
59053;BME280;44843;44.728;10.396;2023-07-30T09:03:22;61389.06;;;-146.16;100.00
59053;BME280;44843;44.728;10.396;2023-07-30T09:05:48;61389.06;;;-146.16;100.00
59053;BME280;44843;44.728;10.396;2023-07-30T09:08:14;61389.06;;;-146.16;100.00
59053;BME280;44843;44.728;10.396;2023-07-30T09:10:40;61389.06;;;-146.16;100.00
59053;BME280;44843;44.728;10.396;2023-07-30T09:13:06;61389.06;;;-146.16;100.00
59053;BME280;44843;44.728;10.396;2023-07-30T09:15:36;61389.06;;;-146.16;100.00
59053;BME280;44843;44.728;10.396;2023-07-30T09:18:03;61389.06;;;-146.16;100.00
59053;BME280;44843;44.728;10.396;2023-07-30T09:20:37;61389.06;;;-146.16;100.00
59053;BME280;44843;44.728;10.396;2023-07-30T09:23:03;61389.06;;;-146.16;100.00
59053;BME280;44843;44.728;10.396;2023-07-30T09:25:28;61389.06;;;-146.16;100.00
59053;BME280;44843;44.728;10.396;2023-07-30T09:27:53;61389.06;;;-146.16;100.00
59053;BME280;44843;44.728;10.396;2023-07-30T09:30:29;61389.06;;;-146.16;100.00
59053;BME280;44843;44.728;10.396;2023-07-30T09:32:56;61389.06;;;-146.16;100.00
59053;BME280;44843;44.728;10.396;2023-07-30T09:35:24;61389.06;;;-146.16;100.00
59053;BME280;44843;44.728;10.396;2023-07-30T09:37:50;61389.06;;;-146.16;100.00
59053;BME280;44843;44.728;10.396;2023-07-30T09:40:34;61389.06;;;-146.16;100.00
59053;BME280;44843;44.728;10.396;2023-07-30T09:43:02;61389.06;;;-146.16;100.00
59053;BME280;44843;44.728;10.396;2023-07-30T09:45:27;61389.06;;;-146.16;100.00
59053;BME280;44843;44.728;10.396;2023-07-30T09:47:54;61389.06;;;-146.16;100.00
59053;BME280;44843;44.728;10.396;2023-07-30T09:50:21;61389.06;;;-146.16;100.00
59053;BME280;44843;44.728;10.396;2023-07-30T09:52:48;61389.06;;;-146.16;100.00
59053;BME280;44843;44.728;10.396;2023-07-30T09:55:15;61389.06;;;-146.16;100.00
59053;BME280;44843;44.728;10.396;2023-07-30T09:57:40;61389.06;;;-146.16;100.00
59053;BME280;44843;44.728;10.396;2023-07-30T10:00:06;61389.06;;;-146.16;100.00
59053;BME280;44843;44.728;10.396;2023-07-30T10:02:38;61389.06;;;-146.16;100.00
59053;BME280;44843;44.728;10.396;2023-07-30T10:05:10;61389.06;;;-146.16;100.00
59053;BME280;44843;44.728;10.396;2023-07-30T10:07:38;61389.06;;;-146.16;100.00
59053;BME280;44843;44.728;10.396;2023-07-30T10:10:07;61389.06;;;-146.16;100.00
59053;BME280;44843;44.728;10.396;2023-07-30T10:12:33;61389.06;;;-146.16;100.00
59053;BME280;44843;44.728;10.396;2023-07-30T10:15:01;61389.06;;;-146.16;100.00
59053;BME280;44843;44.728;10.396;2023-07-30T10:17:27;61389.06;;;-146.16;100.00
59053;BME280;44843;44.728;10.396;2023-07-30T10:19:54;61389.06;;;-146.16;100.00
59053;BME280;44843;44.728;10.396;2023-07-30T10:22:23;61389.06;;;-146.16;100.00
59053;BME280;44843;44.728;10.396;2023-07-30T10:25:03;61389.06;;;-146.16;100.00
59053;BME280;44843;44.728;10.396;2023-07-30T10:27:40;61389.06;;;-146.16;100.00
59053;BME280;44843;44.728;10.396;2023-07-30T10:30:20;61389.06;;;-146.16;100.00
59053;BME280;44843;44.728;10.396;2023-07-30T10:38:28;61389.06;;;-146.16;100.00
59053;BME280;44843;44.728;10.396;2023-07-30T10:41:13;61389.06;;;-146.16;100.00
59053;BME280;44843;44.728;10.396;2023-07-30T10:43:46;61389.06;;;-146.16;100.00
59053;BME280;44843;44.728;10.396;2023-07-30T10:46:14;61389.06;;;-146.16;100.00
59053;BME280;44843;44.728;10.396;2023-07-30T10:48:42;61389.06;;;-146.16;100.00
59053;BME280;44843;44.728;10.396;2023-07-30T10:51:09;61389.06;;;-146.16;100.00
59053;BME280;44843;44.728;10.396;2023-07-30T10:53:35;61389.06;;;-146.16;100.00
59053;BME280;44843;44.728;10.396;2023-07-30T10:56:03;61389.06;;;-146.16;100.00
59053;BME280;44843;44.728;10.396;2023-07-30T10:58:34;61389.06;;;-146.16;100.00
59053;BME280;44843;44.728;10.396;2023-07-30T11:01:04;61389.06;;;-146.16;100.00
59053;BME280;44843;44.728;10.396;2023-07-30T11:03:30;61389.06;;;-146.16;100.00
59053;BME280;44843;44.728;10.396;2023-07-30T11:05:57;61389.06;;;-146.16;100.00
59053;BME280;44843;44.728;10.396;2023-07-30T11:08:35;61389.06;;;-146.16;100.00
59053;BME280;44843;44.728;10.396;2023-07-30T11:11:02;61389.06;;;-146.16;100.00
59053;BME280;44843;44.728;10.396;2023-07-30T11:13:28;61389.06;;;-146.16;100.00
59053;BME280;44843;44.728;10.396;2023-07-30T11:15:53;61389.06;;;-146.16;100.00
59053;BME280;44843;44.728;10.396;2023-07-30T11:18:19;61389.06;;;-146.16;100.00
59053;BME280;44843;44.728;10.396;2023-07-30T11:20:44;61389.06;;;-146.16;100.00
59053;BME280;44843;44.728;10.396;2023-07-30T11:23:20;61389.06;;;-146.16;100.00
59053;BME280;44843;44.728;10.396;2023-07-30T11:25:50;61389.06;;;-146.16;100.00
59053;BME280;44843;44.728;10.396;2023-07-30T11:28:32;61389.06;;;-146.16;100.00
59053;BME280;44843;44.728;10.396;2023-07-30T11:31:12;61389.06;;;-146.16;100.00
59053;BME280;44843;44.728;10.396;2023-07-30T11:33:41;61389.06;;;-146.16;100.00
59053;BME280;44843;44.728;10.396;2023-07-30T11:36:10;61389.06;;;-146.16;100.00
59053;BME280;44843;44.728;10.396;2023-07-30T11:38:37;61389.06;;;-146.16;100.00
59053;BME280;44843;44.728;10.396;2023-07-30T11:41:03;61389.06;;;-146.16;100.00
59053;BME280;44843;44.728;10.396;2023-07-30T11:43:30;61389.06;;;-146.16;100.00
59053;BME280;44843;44.728;10.396;2023-07-30T11:46:16;61389.06;;;-146.16;100.00
59053;BME280;44843;44.728;10.396;2023-07-30T11:48:46;61389.06;;;-146.16;100.00
59053;BME280;44843;44.728;10.396;2023-07-30T11:51:26;61389.06;;;-146.16;100.00
59053;BME280;44843;44.728;10.396;2023-07-30T11:53:59;61389.06;;;-146.16;100.00
59053;BME280;44843;44.728;10.396;2023-07-30T11:56:31;61389.06;;;-146.16;100.00
59053;BME280;44843;44.728;10.396;2023-07-30T12:01:24;61389.06;;;-146.16;100.00
59053;BME280;44843;44.728;10.396;2023-07-30T12:03:54;61389.06;;;-146.16;100.00
59053;BME280;44843;44.728;10.396;2023-07-30T12:06:19;61389.06;;;-146.16;100.00
59053;BME280;44843;44.728;10.396;2023-07-30T12:08:48;61389.06;;;-146.16;100.00
59053;BME280;44843;44.728;10.396;2023-07-30T12:11:14;61389.06;;;-146.16;100.00
59053;BME280;44843;44.728;10.396;2023-07-30T12:13:48;61389.06;;;-146.16;100.00
59053;BME280;44843;44.728;10.396;2023-07-30T12:16:15;61389.06;;;-146.16;100.00
59053;BME280;44843;44.728;10.396;2023-07-30T12:18:41;61389.06;;;-146.16;100.00
59053;BME280;44843;44.728;10.396;2023-07-30T12:21:07;61389.06;;;-146.16;100.00
59053;BME280;44843;44.728;10.396;2023-07-30T12:23:36;61389.06;;;-146.16;100.00
59053;BME280;44843;44.728;10.396;2023-07-30T12:26:02;61389.06;;;-146.16;100.00
59053;BME280;44843;44.728;10.396;2023-07-30T12:28:31;100076.00;;;30.65;nan
59053;BME280;44843;44.728;10.396;2023-07-30T12:30:56;100074.81;;;30.91;nan
59053;BME280;44843;44.728;10.396;2023-07-30T12:33:22;100062.94;;;31.10;nan
59053;BME280;44843;44.728;10.396;2023-07-30T12:35:47;100064.25;;;31.31;nan
59053;BME280;44843;44.728;10.396;2023-07-30T12:38:15;100074.53;;;31.34;nan
59053;BME280;44843;44.728;10.396;2023-07-30T12:40:41;100066.81;;;31.38;nan
59053;BME280;44843;44.728;10.396;2023-07-30T12:43:06;100070.22;;;31.45;nan
59053;BME280;44843;44.728;10.396;2023-07-30T12:45:34;100067.03;;;30.83;nan
59053;BME280;44843;44.728;10.396;2023-07-30T12:48:00;100058.56;;;30.86;nan
59053;BME280;44843;44.728;10.396;2023-07-30T12:50:26;100053.44;;;31.19;nan